createdAt,value
2019-04-06T00:00:05.197Z,7.52
2019-04-06T00:02:37.023Z,7.62
2019-04-06T00:05:06.606Z,7.66
2019-04-06T00:07:37.195Z,7.70
2019-04-06T00:10:06.332Z,7.74
2019-04-06T00:12:35.595Z,7.76
2019-04-06T00:15:04.863Z,7.58
2019-04-06T00:17:34.262Z,7.68
2019-04-06T00:20:03.543Z,7.57
2019-04-06T00:22:37.352Z,7.58
2019-04-06T00:25:06.717Z,7.54
2019-04-06T00:27:37.240Z,7.46
2019-04-06T00:30:07.312Z,7.44
2019-04-06T00:32:41.209Z,7.43
2019-04-06T00:35:10.459Z,7.27
2019-04-06T00:37:40.872Z,7.30
2019-04-06T00:40:12.095Z,7.33
2019-04-06T00:42:41.177Z,7.34
2019-04-06T00:45:10.294Z,7.29
2019-04-06T00:47:41.805Z,7.29
2019-04-06T00:50:12.756Z,7.29
2019-04-06T00:52:42.263Z,7.25
2019-04-06T00:55:11.299Z,7.23
2019-04-06T00:57:41.831Z,7.19
2019-04-06T01:00:12.875Z,7.21
2019-04-06T01:02:42.062Z,7.18
2019-04-06T01:05:11.300Z,7.13
2019-04-06T01:07:40.418Z,7.12
2019-04-06T01:10:10.993Z,7.01
2019-04-06T01:12:40.200Z,6.97
2019-04-06T01:15:09.436Z,6.88
2019-04-06T01:17:38.509Z,6.85
2019-04-06T01:20:07.651Z,6.84
2019-04-06T01:22:36.701Z,6.83
2019-04-06T01:25:07.488Z,6.76
2019-04-06T01:27:36.630Z,6.68
2019-04-06T01:30:06.591Z,6.67
2019-04-06T01:32:35.676Z,6.59
2019-04-06T01:35:04.768Z,6.59
2019-04-06T01:37:34.051Z,6.54
2019-04-06T01:40:03.244Z,6.42
2019-04-06T01:42:32.300Z,6.39
2019-04-06T01:45:01.374Z,6.22
2019-04-06T01:47:30.554Z,6.10
2019-04-06T01:49:59.602Z,6.09
2019-04-06T01:52:28.654Z,5.91
2019-04-06T01:54:59.119Z,5.92
2019-04-06T01:57:28.455Z,5.87
2019-04-06T01:59:57.645Z,5.55
2019-04-06T02:02:32.458Z,5.77
2019-04-06T02:05:01.534Z,5.69
2019-04-06T02:07:32.104Z,5.59
2019-04-06T02:10:01.268Z,5.49
2019-04-06T02:12:30.420Z,5.37
2019-04-06T02:14:59.520Z,5.39
2019-04-06T02:17:28.630Z,5.27
2019-04-06T02:19:57.672Z,5.27
2019-04-06T02:22:28.232Z,5.21
2019-04-06T02:24:57.278Z,5.12
2019-04-06T02:27:28.590Z,5.05
2019-04-06T02:30:16.612Z,4.96
2019-04-06T02:33:03.434Z,4.85
2019-04-06T02:35:39.007Z,4.84
2019-04-06T02:38:26.995Z,4.73
2019-04-06T02:41:03.347Z,4.74
2019-04-06T02:43:34.114Z,4.71
2019-04-06T02:46:03.148Z,4.61
2019-04-06T02:48:32.265Z,4.60
2019-04-06T02:51:03.571Z,4.56
2019-04-06T02:53:32.586Z,4.53
2019-04-06T02:56:04.453Z,4.51
2019-04-06T02:58:33.637Z,3.86
2019-04-06T03:01:03.018Z,4.35
2019-04-06T03:03:32.208Z,4.39
2019-04-06T03:06:20.406Z,4.36
2019-04-06T03:08:49.600Z,4.37
2019-04-06T03:11:18.671Z,4.26
2019-04-06T03:13:47.737Z,4.24
2019-04-06T03:16:18.184Z,4.28
2019-04-06T03:18:48.346Z,4.29
2019-04-06T03:21:17.574Z,4.28
2019-04-06T03:23:51.241Z,4.25
2019-04-06T03:26:19.030Z,4.16
2019-04-06T03:28:48.099Z,4.22
2019-04-06T03:31:22.820Z,4.15
2019-04-06T03:33:50.133Z,4.22
2019-04-06T03:36:20.255Z,4.38
2019-04-06T03:38:50.512Z,4.39
2019-04-06T03:41:19.695Z,4.34
2019-04-06T03:43:48.815Z,4.41
2019-04-06T03:46:17.849Z,4.47
2019-04-06T03:48:46.875Z,4.45
2019-04-06T03:51:15.905Z,4.64
2019-04-06T03:53:45.003Z,4.69
2019-04-06T03:56:14.051Z,4.77
2019-04-06T03:58:43.073Z,4.84
2019-04-06T04:01:12.180Z,4.93
2019-04-06T04:03:41.287Z,4.91
2019-04-06T04:06:10.516Z,4.87
2019-04-06T04:08:39.627Z,5.05
2019-04-06T04:11:10.012Z,5.16
2019-04-06T04:13:44.413Z,5.24
2019-04-06T04:16:13.464Z,5.05
2019-04-06T04:18:42.853Z,4.72
2019-04-06T04:21:11.906Z,4.82
2019-04-06T04:23:40.959Z,4.83
2019-04-06T04:26:10.198Z,4.90
2019-04-06T04:28:39.350Z,5.01
2019-04-06T04:31:10.695Z,4.93
2019-04-06T04:33:39.837Z,5.01
2019-04-06T04:36:11.247Z,5.22
2019-04-06T04:38:40.450Z,5.20
2019-04-06T04:41:09.497Z,5.04
2019-04-06T04:43:38.539Z,5.07
2019-04-06T04:46:07.537Z,5.04
2019-04-06T04:48:36.626Z,5.14
2019-04-06T04:51:05.642Z,5.31
2019-04-06T04:53:34.705Z,5.27
2019-04-06T04:56:03.820Z,5.46
2019-04-06T04:58:34.255Z,5.48
2019-04-06T05:01:03.406Z,5.49
2019-04-06T05:03:32.466Z,5.59
2019-04-06T05:06:01.505Z,5.62
2019-04-06T05:08:30.506Z,5.58
2019-04-06T05:11:00.714Z,5.42
2019-04-06T05:13:29.898Z,5.53
2019-04-06T05:16:10.704Z,5.42
2019-04-06T05:18:41.645Z,5.55
2019-04-06T05:21:10.698Z,5.65
2019-04-06T05:23:39.762Z,5.61
2019-04-06T05:26:08.828Z,5.54
2019-04-06T05:28:40.099Z,5.85
2019-04-06T05:31:11.443Z,5.77
2019-04-06T05:33:40.473Z,5.64
2019-04-06T05:36:10.877Z,5.62
2019-04-06T05:38:39.985Z,5.73
2019-04-06T05:41:09.058Z,5.61
2019-04-06T05:43:38.183Z,5.35
2019-04-06T05:46:07.328Z,5.76
2019-04-06T05:48:37.018Z,5.87
2019-04-06T05:51:06.394Z,5.84
2019-04-06T05:53:35.501Z,5.65
2019-04-06T05:56:04.617Z,5.28
2019-04-06T05:58:33.657Z,5.20
2019-04-06T06:01:04.099Z,5.61
2019-04-06T06:03:33.472Z,5.64
2019-04-06T06:06:02.542Z,5.81
2019-04-06T06:08:31.624Z,5.77
2019-04-06T06:11:00.752Z,5.78
2019-04-06T06:13:29.806Z,6.02
2019-04-06T06:15:58.897Z,6.08
2019-04-06T06:18:27.942Z,5.91
2019-04-06T06:20:57.052Z,6.09
2019-04-06T06:23:26.055Z,6.21
2019-04-06T06:25:55.242Z,6.28
2019-04-06T06:28:24.374Z,6.00
2019-04-06T06:30:54.029Z,6.22
2019-04-06T06:33:23.400Z,6.43
2019-04-06T06:35:52.455Z,5.91
2019-04-06T06:38:21.594Z,5.82
2019-04-06T06:40:50.608Z,5.99
2019-04-06T06:43:19.748Z,5.76
2019-04-06T06:45:49.001Z,6.46
2019-04-06T06:48:18.493Z,6.17
2019-04-06T06:50:48.833Z,6.37
2019-04-06T06:53:18.017Z,6.45
2019-04-06T06:55:49.047Z,6.73
2019-04-06T06:58:25.071Z,6.83
2019-04-06T07:00:51.152Z,7.06
2019-04-06T07:03:20.402Z,6.75
2019-04-06T07:05:51.292Z,6.57
2019-04-06T07:08:20.620Z,7.55
2019-04-06T07:10:50.435Z,7.37
2019-04-06T07:13:19.986Z,6.90
2019-04-06T07:15:51.848Z,6.86
2019-04-06T07:18:21.284Z,6.92
2019-04-06T07:20:50.870Z,6.85
2019-04-06T07:23:20.179Z,7.27
2019-04-06T07:25:57.365Z,7.01
2019-04-06T07:28:23.141Z,7.54
2019-04-06T07:30:52.580Z,7.85
2019-04-06T07:33:21.652Z,9.36
2019-04-06T07:35:51.989Z,9.64
2019-04-06T07:38:21.145Z,9.84
2019-04-06T07:40:52.439Z,10.30
2019-04-06T07:43:21.653Z,10.41
2019-04-06T07:45:51.491Z,11.11
2019-04-06T07:48:20.567Z,11.20
2019-04-06T07:50:50.860Z,11.87
2019-04-06T07:53:20.001Z,12.63
2019-04-06T07:55:49.907Z,12.63
2019-04-06T07:58:19.328Z,12.80
2019-04-06T08:00:48.491Z,12.49
2019-04-06T08:03:17.637Z,13.09
2019-04-06T08:05:47.055Z,12.62
2019-04-06T08:08:16.268Z,12.48
2019-04-06T08:10:45.399Z,12.18
2019-04-06T08:13:16.245Z,12.93
2019-04-06T08:15:45.414Z,13.28
2019-04-06T08:18:14.650Z,13.04
2019-04-06T08:20:43.826Z,13.49
2019-04-06T08:23:13.017Z,13.65
2019-04-06T08:25:44.045Z,14.64
2019-04-06T08:28:13.227Z,14.02
2019-04-06T08:30:46.082Z,14.40
2019-04-06T08:33:14.183Z,14.15
2019-04-06T08:35:44.692Z,12.81
2019-04-06T08:38:13.812Z,14.37
2019-04-06T08:40:42.861Z,14.18
2019-04-06T08:43:12.108Z,14.49
2019-04-06T08:45:41.149Z,14.28
2019-04-06T08:48:10.247Z,14.39
2019-04-06T08:50:39.299Z,14.70
2019-04-06T08:53:08.554Z,14.52
2019-04-06T08:55:38.440Z,14.67
2019-04-06T08:58:07.901Z,14.65
2019-04-06T09:00:37.008Z,15.19
2019-04-06T09:03:06.182Z,14.88
2019-04-06T09:05:35.280Z,15.81
2019-04-06T09:08:04.352Z,14.77
2019-04-06T09:10:33.496Z,15.51
2019-04-06T09:13:02.664Z,16.05
2019-04-06T09:15:32.160Z,14.71
2019-04-06T09:18:01.262Z,14.89
2019-04-06T09:20:30.408Z,15.26
2019-04-06T09:22:59.683Z,15.41
2019-04-06T09:25:28.809Z,15.96
2019-04-06T09:27:58.009Z,15.11
2019-04-06T09:30:32.163Z,15.52
2019-04-06T09:33:01.973Z,15.04
2019-04-06T09:35:33.614Z,15.31
2019-04-06T09:38:02.769Z,16.43
2019-04-06T09:40:34.122Z,15.73
2019-04-06T09:43:03.425Z,16.15
2019-04-06T09:45:45.088Z,15.81
2019-04-06T09:48:33.681Z,15.67
2019-04-06T09:51:18.565Z,15.58
2019-04-06T09:54:07.625Z,15.95
2019-04-06T09:56:51.793Z,16.81
2019-04-06T09:59:39.814Z,16.75
2019-04-06T10:02:23.988Z,16.12
2019-04-06T10:05:12.054Z,16.64
2019-04-06T10:08:12.254Z,17.28
2019-04-06T10:11:10.816Z,17.34
2019-04-06T10:13:58.900Z,17.24
2019-04-06T10:16:55.863Z,17.57
2019-04-06T10:19:49.851Z,17.11
2019-04-06T10:22:25.259Z,17.28
2019-04-06T10:25:17.560Z,16.50
2019-04-06T10:28:08.583Z,16.90
2019-04-06T10:30:59.450Z,16.44
2019-04-06T10:33:37.130Z,17.93
2019-04-06T10:36:32.046Z,16.31
2019-04-06T10:39:15.944Z,14.94
2019-04-06T10:42:10.367Z,16.93
2019-04-06T10:45:01.710Z,17.86
2019-04-06T10:47:57.410Z,17.56
2019-04-06T10:50:51.602Z,16.02
2019-04-06T10:53:54.079Z,17.49
2019-04-06T10:56:44.778Z,19.12
2019-04-06T10:59:41.656Z,17.57
2019-04-06T11:02:28.840Z,17.48
2019-04-06T11:05:26.772Z,18.24
2019-04-06T11:08:27.139Z,18.80
2019-04-06T11:11:17.939Z,17.83
2019-04-06T11:14:13.093Z,16.53
2019-04-06T11:16:52.981Z,17.51
2019-04-06T11:19:44.692Z,16.04
2019-04-06T11:22:45.058Z,17.56
2019-04-06T11:25:45.139Z,18.26
2019-04-06T11:28:21.266Z,18.19
2019-04-06T11:31:08.286Z,18.37
2019-04-06T11:33:59.429Z,16.43
2019-04-06T11:36:52.792Z,16.60
2019-04-06T11:39:43.800Z,17.56
2019-04-06T11:42:29.373Z,18.58
2019-04-06T11:45:23.672Z,18.80
2019-04-06T11:48:28.427Z,18.98
2019-04-06T11:51:38.645Z,19.10
2019-04-06T11:54:27.272Z,19.97
2019-04-06T11:57:15.383Z,19.47
2019-04-06T12:00:26.839Z,19.04
2019-04-06T12:03:12.063Z,19.34
2019-04-06T12:05:58.863Z,18.37
2019-04-06T12:08:52.958Z,17.37
2019-04-06T12:11:29.552Z,18.11
2019-04-06T12:14:23.610Z,19.23
2019-04-06T12:17:05.854Z,19.52
2019-04-06T12:20:01.272Z,20.06
2019-04-06T12:22:45.736Z,19.39
2019-04-06T12:25:40.830Z,18.70
2019-04-06T12:28:40.962Z,19.29
2019-04-06T12:31:22.340Z,19.08
2019-04-06T12:34:02.699Z,19.26
2019-04-06T12:36:43.869Z,19.80
2019-04-06T12:39:50.960Z,20.76
2019-04-06T12:42:31.544Z,21.14
2019-04-06T12:45:32.043Z,20.10
2019-04-06T12:48:35.141Z,20.38
2019-04-06T12:51:32.201Z,19.53
2019-04-06T12:54:23.416Z,19.46
2019-04-06T12:57:17.782Z,19.81
2019-04-06T13:00:12.200Z,19.99
2019-04-06T13:03:05.670Z,19.71
2019-04-06T13:05:42.188Z,19.78
2019-04-06T13:08:29.625Z,19.74
2019-04-06T13:11:20.446Z,19.97
2019-04-06T13:14:11.513Z,19.32
2019-04-06T13:16:59.692Z,19.13
2019-04-06T13:19:50.673Z,19.30
2019-04-06T13:22:29.057Z,19.34
2019-04-06T13:25:17.652Z,19.18
2019-04-06T13:28:04.451Z,18.32
2019-04-06T13:31:01.764Z,18.68
2019-04-06T13:33:51.135Z,18.96
2019-04-06T13:36:32.839Z,20.29
2019-04-06T13:39:30.507Z,19.83
2019-04-06T13:42:08.307Z,19.49
2019-04-06T13:44:56.338Z,18.22
2019-04-06T13:47:56.647Z,17.73
2019-04-06T13:50:34.236Z,18.27
2019-04-06T13:53:48.931Z,18.62
2019-04-06T13:56:42.894Z,18.22
2019-04-06T13:59:34.253Z,18.22
2019-04-06T14:02:32.711Z,18.04
2019-04-06T14:05:20.720Z,17.81
2019-04-06T14:07:59.257Z,17.50
2019-04-06T14:10:53.346Z,17.53
2019-04-06T14:13:35.291Z,17.30
2019-04-06T14:16:35.200Z,17.11
2019-04-06T14:19:21.967Z,17.18
2019-04-06T14:21:57.010Z,17.13
2019-04-06T14:24:47.778Z,16.14
2019-04-06T14:27:24.685Z,16.46
2019-04-06T14:30:11.667Z,16.51
2019-04-06T14:32:56.915Z,16.98
2019-04-06T14:35:44.743Z,17.11
2019-04-06T14:38:32.772Z,17.16
2019-04-06T14:41:19.911Z,16.74
2019-04-06T14:44:05.811Z,16.34
2019-04-06T14:46:58.344Z,16.37
2019-04-06T14:50:02.693Z,16.41
2019-04-06T14:52:43.150Z,16.27
2019-04-06T14:55:22.769Z,16.16
2019-04-06T14:58:18.303Z,16.16
2019-04-06T15:01:41.521Z,15.86
2019-04-06T15:04:26.615Z,15.50
2019-04-06T15:07:23.825Z,15.59
2019-04-06T15:10:11.838Z,15.87
2019-04-06T15:13:02.905Z,15.56
2019-04-06T15:15:50.039Z,15.70
2019-04-06T15:18:41.441Z,15.31
2019-04-06T15:21:44.898Z,15.64
2019-04-06T15:24:38.942Z,15.70
2019-04-06T15:27:29.400Z,15.58
2019-04-06T15:30:21.013Z,15.51
2019-04-06T15:33:09.011Z,15.50
2019-04-06T15:36:06.285Z,15.44
2019-04-06T15:38:59.526Z,15.97
2019-04-06T15:41:57.468Z,16.08
2019-04-06T15:44:48.667Z,15.86
2019-04-06T15:47:37.214Z,15.37
2019-04-06T15:50:32.650Z,15.87
2019-04-06T15:53:20.726Z,14.90
2019-04-06T15:55:58.493Z,15.54
2019-04-06T15:58:49.685Z,15.38
2019-04-06T16:01:31.830Z,15.05
2019-04-06T16:04:27.951Z,15.40
2019-04-06T16:07:33.347Z,15.17
2019-04-06T16:10:19.882Z,15.40
2019-04-06T16:13:06.406Z,15.34
2019-04-06T16:15:57.326Z,15.30
2019-04-06T16:18:46.234Z,15.31
2019-04-06T16:21:32.868Z,15.28
2019-04-06T16:24:24.730Z,15.12
2019-04-06T16:27:01.567Z,15.18
2019-04-06T16:29:54.404Z,15.24
2019-04-06T16:32:47.121Z,15.44
2019-04-06T16:35:25.714Z,15.26
2019-04-06T16:38:17.129Z,15.41
2019-04-06T16:41:10.647Z,15.24
2019-04-06T16:44:17.854Z,15.17
2019-04-06T16:47:15.792Z,15.14
2019-04-06T16:49:56.765Z,15.01
2019-04-06T16:52:48.354Z,15.11
2019-04-06T16:55:36.483Z,14.89
2019-04-06T16:58:36.787Z,15.12
2019-04-06T17:01:25.338Z,14.92
2019-04-06T17:04:13.590Z,14.94
2019-04-06T17:07:06.511Z,14.81
2019-04-06T17:09:53.824Z,14.78
2019-04-06T17:12:48.611Z,14.67
2019-04-06T17:15:27.674Z,14.82
2019-04-06T17:18:18.841Z,15.01
2019-04-06T17:20:56.620Z,14.97
2019-04-06T17:23:36.841Z,14.61
2019-04-06T17:26:26.185Z,14.51
2019-04-06T17:29:23.370Z,14.34
2019-04-06T17:32:18.253Z,14.23
2019-04-06T17:35:08.231Z,14.27
2019-04-06T17:38:02.961Z,14.17
2019-04-06T17:40:46.032Z,14.19
2019-04-06T17:43:32.930Z,14.07
2019-04-06T17:46:21.132Z,14.07
2019-04-06T17:49:12.404Z,13.76
2019-04-06T17:52:10.111Z,13.67
2019-04-06T17:54:58.062Z,13.40
2019-04-06T17:57:44.965Z,13.42
2019-04-06T18:00:32.669Z,13.26
2019-04-06T18:03:30.662Z,13.06
2019-04-06T18:06:23.115Z,13.02
2019-04-06T18:09:25.805Z,12.91
2019-04-06T18:12:16.700Z,12.87
2019-04-06T18:14:47.722Z,12.71
2019-04-06T18:17:17.620Z,12.60
2019-04-06T18:19:47.252Z,12.54
2019-04-06T18:22:16.315Z,12.53
2019-04-06T18:24:47.834Z,12.59
2019-04-06T18:27:17.388Z,12.41
2019-04-06T18:29:46.604Z,12.57
2019-04-06T18:32:35.074Z,12.41
2019-04-06T18:35:06.426Z,12.30
2019-04-06T18:37:43.810Z,12.33
2019-04-06T18:40:23.675Z,12.32
2019-04-06T18:42:53.077Z,12.36
2019-04-06T18:45:23.521Z,12.44
2019-04-06T18:47:53.083Z,12.25
2019-04-06T18:50:33.278Z,12.10
2019-04-06T18:52:53.140Z,11.91
2019-04-06T18:55:22.253Z,11.81
2019-04-06T18:57:53.345Z,11.72
2019-04-06T19:00:22.627Z,11.65
2019-04-06T19:02:53.947Z,11.57
2019-04-06T19:05:26.894Z,11.53
2019-04-06T19:07:56.415Z,11.45
2019-04-06T19:10:25.693Z,11.39
2019-04-06T19:12:56.657Z,11.22
2019-04-06T19:15:27.258Z,10.93
2019-04-06T19:17:56.332Z,11.05
2019-04-06T19:20:25.667Z,10.96
2019-04-06T19:22:54.773Z,10.82
2019-04-06T19:25:23.842Z,10.68
2019-04-06T19:27:53.654Z,10.66
2019-04-06T19:30:23.778Z,10.73
2019-04-06T19:32:54.008Z,10.63
2019-04-06T19:35:23.617Z,10.59
2019-04-06T19:37:53.027Z,10.56
2019-04-06T19:40:22.623Z,10.46
2019-04-06T19:42:52.109Z,10.45
2019-04-06T19:45:21.328Z,10.41
2019-04-06T19:47:50.518Z,10.42
2019-04-06T19:50:20.254Z,10.38
2019-04-06T19:52:49.577Z,10.27
2019-04-06T19:55:19.124Z,10.35
2019-04-06T19:57:48.203Z,10.44
2019-04-06T20:00:17.796Z,10.45
2019-04-06T20:02:47.327Z,10.37
2019-04-06T20:05:16.439Z,10.25
2019-04-06T20:07:45.593Z,10.15
2019-04-06T20:10:15.157Z,10.11
2019-04-06T20:12:44.382Z,10.22
2019-04-06T20:15:13.436Z,10.25
2019-04-06T20:17:42.723Z,10.25
2019-04-06T20:20:12.074Z,10.12
2019-04-06T20:22:41.447Z,9.83
2019-04-06T20:25:10.797Z,9.75
2019-04-06T20:27:39.934Z,9.68
2019-04-06T20:30:09.531Z,9.61
2019-04-06T20:32:39.107Z,9.69
2019-04-06T20:35:09.314Z,9.73
2019-04-06T20:37:38.754Z,9.61
2019-04-06T20:40:08.816Z,9.25
2019-04-06T20:42:37.990Z,9.59
2019-04-06T20:45:08.278Z,9.48
2019-04-06T20:47:37.504Z,9.59
2019-04-06T20:50:07.323Z,9.49
2019-04-06T20:52:37.047Z,9.40
2019-04-06T20:55:06.345Z,9.40
2019-04-06T20:57:38.380Z,9.45
2019-04-06T21:00:07.626Z,9.36
2019-04-06T21:02:37.646Z,9.30
2019-04-06T21:05:07.169Z,9.40
2019-04-06T21:07:38.052Z,9.49
2019-04-06T21:10:07.313Z,9.60
2019-04-06T21:12:36.946Z,9.53
2019-04-06T21:15:17.641Z,9.67
2019-04-06T21:17:37.896Z,9.52
2019-04-06T21:20:08.114Z,9.59
2019-04-06T21:22:37.697Z,9.67
2019-04-06T21:25:07.151Z,9.66
2019-04-06T21:27:36.912Z,9.64
2019-04-06T21:30:07.066Z,9.51
2019-04-06T21:32:36.171Z,9.59
2019-04-06T21:35:05.756Z,9.53
2019-04-06T21:37:34.893Z,9.47
2019-04-06T21:40:04.241Z,9.37
2019-04-06T21:42:35.667Z,9.45
2019-04-06T21:45:05.151Z,9.45
2019-04-06T21:47:35.818Z,9.47
2019-04-06T21:50:05.806Z,9.53
2019-04-06T21:52:35.360Z,9.43
2019-04-06T21:55:04.943Z,9.54
2019-04-06T21:57:34.082Z,9.57
2019-04-06T22:00:04.413Z,9.46
2019-04-06T22:02:34.500Z,9.59
2019-04-06T22:05:03.659Z,9.65
2019-04-06T22:07:33.631Z,9.60
2019-04-06T22:10:06.448Z,9.59
2019-04-06T22:12:43.455Z,9.55
2019-04-06T22:15:15.753Z,9.48
2019-04-06T22:17:45.348Z,9.43
2019-04-06T22:20:17.579Z,9.37
2019-04-06T22:22:46.998Z,9.36
2019-04-06T22:25:21.032Z,9.26
2019-04-06T22:27:52.041Z,9.17
2019-04-06T22:30:21.182Z,9.11
2019-04-06T22:32:50.328Z,9.05
2019-04-06T22:35:19.479Z,8.96
2019-04-06T22:37:52.301Z,8.91
2019-04-06T22:40:24.680Z,8.85
2019-04-06T22:42:53.897Z,8.75
2019-04-06T22:45:24.199Z,8.73
2019-04-06T22:47:55.911Z,8.61
2019-04-06T22:50:25.708Z,8.68
2019-04-06T22:52:55.309Z,8.66
2019-04-06T22:55:27.029Z,8.70
2019-04-06T22:57:57.181Z,8.75
2019-04-06T23:00:30.538Z,8.75
2019-04-06T23:03:17.214Z,8.82
2019-04-06T23:05:49.270Z,8.80
2019-04-06T23:08:18.393Z,8.62
2019-04-06T23:10:50.452Z,8.61
2019-04-06T23:13:20.267Z,8.64
2019-04-06T23:15:49.724Z,8.61
2019-04-06T23:18:18.892Z,8.61
2019-04-06T23:20:48.346Z,8.65
2019-04-06T23:23:17.653Z,8.50
2019-04-06T23:25:47.369Z,8.45
2019-04-06T23:28:16.440Z,8.41
2019-04-06T23:30:45.856Z,8.39
2019-04-06T23:33:16.444Z,8.40
2019-04-06T23:35:46.093Z,8.38
2019-04-06T23:38:15.157Z,8.23
2019-04-06T23:40:44.329Z,8.16
2019-04-06T23:43:13.446Z,8.17
2019-04-06T23:45:42.670Z,8.18
2019-04-06T23:48:12.090Z,8.08
2019-04-06T23:50:41.150Z,8.05
2019-04-06T23:53:10.211Z,7.98
2019-04-06T23:55:39.404Z,8.02
2019-04-06T23:58:08.462Z,8.03
